Time;durP1;ratioP1;P1;durP2;ratioP2;P2;SDS_P1;SDS_P2;PMS_P1;PMS_P2;Temp;Humidity;BMP_temperature;BMP_pressure;BME280_temperature;BME280_humidity;BME280_pressure;Samples;Min_cycle;Max_cycle;Signal;HPM_P1;HPM_P2
2023/03/14 00:01:17;;;;;;;7.78;4.28;;;;;;;12.11;52.99;98473.28;5015207;28;101260;-88
2023/03/14 00:03:43;;;;;;;8.20;3.53;;;;;;;12.17;52.85;98473.69;5032224;27;97175;-88
2023/03/14 00:06:10;;;;;;;7.35;3.42;;;;;;;12.20;53.21;98473.47;5015795;28;96861;-89
2023/03/14 00:08:36;;;;;;;10.75;4.40;;;;;;;12.02;52.71;98437.13;5014607;28;100348;-89
2023/03/14 00:11:10;;;;;;;7.47;3.83;;;;;;;12.21;52.88;98466.41;5027544;27;100480;-88
2023/03/14 00:13:36;;;;;;;11.48;3.20;;;;;;;11.98;53.02;98434.69;5010278;27;97093;-88
2023/03/14 00:16:20;;;;;;;6.90;3.13;;;;;;;12.21;53.06;98476.94;5032094;27;97132;-89
2023/03/14 00:18:46;;;;;;;7.65;3.17;;;;;;;12.13;52.84;98460.84;5025307;28;101853;-89
2023/03/14 00:21:13;;;;;;;5.80;3.45;;;;;;;12.24;52.82;98474.94;4998797;28;101298;-89
2023/03/14 00:23:40;;;;;;;6.82;3.50;;;;;;;12.17;53.04;98468.44;5031861;27;97125;-89
2023/03/14 00:26:09;;;;;;;6.28;3.60;;;;;;;12.25;52.87;98475.78;5035399;27;96907;-88
2023/03/14 00:28:35;;;;;;;6.20;3.38;;;;;;;12.15;53.18;98458.97;5048039;27;98437;-89
2023/03/14 00:31:06;;;;;;;8.15;3.88;;;;;;;12.21;52.80;98466.41;5029243;27;98173;-88
2023/03/14 00:33:33;;;;;;;8.30;4.15;;;;;;;12.20;52.98;98481.38;5014643;28;97393;-88
2023/03/14 00:36:01;;;;;;;6.80;4.13;;;;;;;12.02;52.97;98445.84;5032274;27;97215;-88
2023/03/14 00:38:30;;;;;;;8.38;4.05;;;;;;;11.99;53.02;98428.47;5031382;27;98440;-89
2023/03/14 00:40:57;;;;;;;8.30;3.97;;;;;;;12.21;52.96;98461.16;5014062;28;101680;-88
2023/03/14 00:43:22;;;;;;;9.52;4.35;;;;;;;12.27;52.77;98459.88;5007091;28;97278;-90
2023/03/14 00:45:51;;;;;;;9.65;4.38;;;;;;;12.24;52.68;98458.31;5011114;28;96849;-88
2023/03/14 00:48:18;;;;;;;8.02;3.53;;;;;;;12.03;53.46;98444.03;5031283;27;101390;-88
2023/03/14 00:50:44;;;;;;;8.93;3.83;;;;;;;12.11;52.63;98468.88;5013808;28;101131;-88
2023/03/14 00:53:10;;;;;;;5.50;3.40;;;;;;;12.07;53.76;98471.78;5027711;28;97072;-87
2023/03/14 00:55:38;;;;;;;5.53;3.30;;;;;;;12.11;53.74;98500.41;5014765;28;96727;-88
2023/03/14 00:58:03;;;;;;;5.85;4.03;;;;;;;12.08;53.45;98547.13;5030928;27;101111;-88
2023/03/14 01:00:29;;;;;;;10.80;3.83;;;;;;;12.15;53.28;98536.06;4997588;28;100966;-87
2023/03/14 01:02:55;;;;;;;5.32;3.15;;;;;;;12.18;52.96;98514.81;5014686;28;97336;-88
2023/03/14 01:05:22;;;;;;;7.30;3.35;;;;;;;11.97;52.71;98472.44;5049003;27;97190;-87
2023/03/14 01:07:48;;;;;;;4.97;2.63;;;;;;;12.22;53.28;98510.22;5052049;27;101227;-87
2023/03/14 01:10:13;;;;;;;4.72;2.88;;;;;;;12.27;53.09;98505.44;5041078;27;101187;-88
2023/03/14 01:12:39;;;;;;;6.13;3.25;;;;;;;12.28;53.04;98501.88;5014094;28;97100;-89
2023/03/14 01:15:05;;;;;;;6.20;3.08;;;;;;;12.22;52.41;98481.28;5031349;27;97381;-86
2023/03/14 01:17:32;;;;;;;6.55;3.50;;;;;;;12.26;52.56;98484.53;5011944;28;101498;-88
2023/03/14 01:19:57;;;;;;;9.23;3.92;;;;;;;12.30;52.82;98492.06;4997430;28;101515;-87
2023/03/14 01:22:23;;;;;;;6.43;3.53;;;;;;;12.19;52.52;98476.22;5021468;27;97330;-88
2023/03/14 01:24:49;;;;;;;6.45;3.53;;;;;;;12.16;52.46;98472.03;5055364;27;96892;-87
2023/03/14 01:27:14;;;;;;;7.45;3.25;;;;;;;11.95;52.14;98432.25;5001464;27;101685;-87
2023/03/14 01:29:40;;;;;;;4.82;3.20;;;;;;;12.04;52.84;98449.19;5023609;27;101231;-87
2023/03/14 01:32:05;;;;;;;7.07;3.60;;;;;;;12.28;52.66;98477.38;5016995;27;97220;-88
2023/03/14 01:34:31;;;;;;;6.18;3.10;;;;;;;12.08;52.81;98427.00;5016434;28;97199;-88
2023/03/14 01:36:57;;;;;;;5.95;3.17;;;;;;;12.36;52.95;98449.56;5020608;27;100772;-88
2023/03/14 01:39:23;;;;;;;8.43;3.70;;;;;;;12.15;52.68;98414.25;4999082;28;101227;-88
2023/03/14 01:41:48;;;;;;;6.55;3.60;;;;;;;12.33;52.68;98426.09;5034358;27;97306;-88
2023/03/14 01:44:15;;;;;;;5.40;3.22;;;;;;;12.15;52.38;98388.78;5034584;27;96934;-88
2023/03/14 01:46:48;;;;;;;6.95;3.25;;;;;;;12.16;52.82;98387.84;5017229;28;101486;-88
2023/03/14 01:49:25;;;;;;;5.18;3.15;;;;;;;12.34;53.06;98413.81;5016110;28;101333;-88
2023/03/14 01:52:07;;;;;;;5.15;3.42;;;;;;;12.26;54.29;98427.50;5024629;28;97081;-88
2023/03/14 01:54:38;;;;;;;5.25;3.03;;;;;;;12.32;54.14;98402.53;5037777;27;97191;-87
2023/03/14 01:57:11;;;;;;;7.68;3.00;;;;;;;12.24;54.49;98406.53;5021098;28;101007;-88
2023/03/14 01:59:38;;;;;;;7.72;3.17;;;;;;;12.10;54.38;98396.19;5013449;28;100471;-87
2023/03/14 02:02:07;;;;;;;4.78;2.47;;;;;;;12.11;54.55;98407.53;5034172;27;97372;-88
2023/03/14 02:04:34;;;;;;;6.03;3.15;;;;;;;11.99;54.17;98367.16;5011701;28;97125;-88
2023/03/14 02:07:10;;;;;;;9.75;2.65;;;;;;;11.89;54.40;98334.56;5016466;28;101359;-88
2023/03/14 02:09:41;;;;;;;6.38;3.20;;;;;;;12.05;54.21;98324.66;5017011;27;98885;-88
2023/03/14 02:12:11;;;;;;;7.22;3.50;;;;;;;11.86;54.73;98306.72;5017360;28;96970;-88
2023/03/14 02:14:50;;;;;;;5.93;3.42;;;;;;;12.07;54.62;98340.31;5034125;28;97225;-88
2023/03/14 02:17:36;;;;;;;6.22;3.38;;;;;;;11.94;55.00;98338.56;5018778;28;96892;-88
2023/03/14 02:20:38;;;;;;;5.10;3.42;;;;;;;11.89;56.26;98353.81;5033478;27;98131;-87
2023/03/14 02:23:04;;;;;;;6.93;3.55;;;;;;;11.79;56.39;98350.13;5017213;28;97353;-87
2023/03/14 02:25:43;;;;;;;5.85;3.38;;;;;;;11.73;56.28;98342.69;5014464;28;97296;-89
2023/03/14 02:28:09;;;;;;;7.45;3.42;;;;;;;11.66;56.98;98318.59;5011760;28;101350;-90
2023/03/14 02:30:36;;;;;;;7.13;3.65;;;;;;;11.71;56.75;98307.78;5033186;27;100392;-88
2023/03/14 02:33:05;;;;;;;7.28;4.15;;;;;;;11.56;56.84;98294.75;5016946;27;97184;-88
2023/03/14 02:35:49;;;;;;;6.15;3.38;;;;;;;11.47;56.32;98273.56;5012106;28;96871;-88
2023/03/14 02:38:27;;;;;;;6.15;3.35;;;;;;;11.59;56.06;98291.06;5012977;28;101881;-88
2023/03/14 02:40:53;;;;;;;12.15;3.78;;;;;;;11.46;55.92;98258.72;5010104;28;101237;-88
2023/03/14 02:43:19;;;;;;;7.90;3.63;;;;;;;11.55;56.07;98277.31;5016662;28;97105;-88
2023/03/14 02:45:51;;;;;;;7.35;3.35;;;;;;;11.49;55.97;98283.00;5012558;28;97542;-88
2023/03/14 02:48:35;;;;;;;7.28;3.50;;;;;;;11.58;56.17;98289.41;5023977;28;100249;-89
2023/03/14 02:51:01;;;;;;;9.38;3.70;;;;;;;11.61;55.83;98299.69;5033431;27;101814;-88
2023/03/14 02:53:31;;;;;;;6.25;3.38;;;;;;;11.51;56.06;98293.41;5016204;28;97547;-87
2023/03/14 02:56:00;;;;;;;8.48;3.15;;;;;;;11.57;55.71;98291.16;5016877;28;97337;-88
2023/03/14 02:58:26;;;;;;;8.20;3.53;;;;;;;11.50;55.50;98266.28;5012839;28;101627;-89
2023/03/14 03:00:58;;;;;;;7.03;2.72;;;;;;;11.51;55.23;98252.19;5033581;27;101865;-88
2023/03/14 03:03:24;;;;;;;9.23;3.30;;;;;;;11.53;55.13;98247.69;5013443;28;97276;-88
2023/03/14 03:05:50;;;;;;;7.68;3.20;;;;;;;11.57;54.90;98248.28;5024445;27;97227;-88
2023/03/14 03:08:20;;;;;;;5.97;3.30;;;;;;;11.61;54.73;98247.16;5011799;28;100513;-88
2023/03/14 03:10:47;;;;;;;6.13;2.78;;;;;;;11.47;54.46;98203.44;5032324;27;100539;-88
2023/03/14 03:13:13;;;;;;;5.13;2.78;;;;;;;11.57;54.44;98241.25;4998357;27;97369;-88
2023/03/14 03:15:40;;;;;;;6.85;3.45;;;;;;;11.59;55.15;98241.16;5016054;28;97425;-91
2023/03/14 03:18:06;;;;;;;6.63;3.35;;;;;;;11.52;54.82;98240.75;5015791;28;100268;-89
2023/03/14 03:20:32;;;;;;;7.18;3.50;;;;;;;11.58;55.03;98244.75;5032797;27;98314;-89
2023/03/14 03:22:59;;;;;;;7.47;2.80;;;;;;;11.43;55.02;98216.91;5013269;28;97035;-88
2023/03/14 03:25:25;;;;;;;5.78;2.88;;;;;;;11.52;55.03;98235.50;5032589;27;97209;-88
2023/03/14 03:27:51;;;;;;;7.22;3.40;;;;;;;11.56;54.99;98228.22;5003840;28;101032;-89
2023/03/14 03:30:17;;;;;;;4.05;2.45;;;;;;;11.54;55.03;98238.84;5020307;27;101410;-88
2023/03/14 03:32:43;;;;;;;7.47;2.72;;;;;;;11.59;55.00;98230.63;5015468;28;96980;-88
2023/03/14 03:35:10;;;;;;;7.20;3.25;;;;;;;11.55;55.33;98235.28;5032419;27;96913;-89
2023/03/14 03:37:38;;;;;;;6.82;2.70;;;;;;;11.62;55.03;98226.97;5014610;28;102267;-88
2023/03/14 03:40:06;;;;;;;8.43;2.63;;;;;;;11.36;54.98;98197.28;4999298;28;101594;-88
2023/03/14 03:42:34;;;;;;;5.38;2.78;;;;;;;11.58;55.23;98228.97;4998489;28;97373;-90
2023/03/14 03:45:02;;;;;;;4.47;2.42;;;;;;;11.52;55.03;98209.22;4994484;28;96953;-88
2023/03/14 03:47:30;;;;;;;7.18;2.75;;;;;;;11.64;54.61;98209.31;5012876;28;101369;-88
2023/03/14 03:49:56;;;;;;;5.10;3.03;;;;;;;11.59;54.69;98201.72;4998225;28;101777;-88
2023/03/14 03:52:22;;;;;;;7.38;3.03;;;;;;;11.61;54.15;98191.97;5032384;27;96862;-89
2023/03/14 03:54:47;;;;;;;4.35;2.85;;;;;;;11.60;54.39;98216.53;5015437;28;97277;-88
2023/03/14 03:57:13;;;;;;;7.18;2.75;;;;;;;11.39;54.37;98168.16;5015563;28;101322;-88
2023/03/14 03:59:40;;;;;;;7.10;2.95;;;;;;;11.59;55.04;98199.09;5012936;28;101296;-88
2023/03/14 04:02:07;;;;;;;7.22;3.50;;;;;;;11.57;54.47;98190.47;5014363;28;97010;-88
2023/03/14 04:04:33;;;;;;;6.40;2.75;;;;;;;11.55;54.43;98176.63;5015075;28;97886;-89
2023/03/14 04:07:01;;;;;;;5.60;2.28;;;;;;;11.51;54.69;98160.22;5019524;28;101620;-88
2023/03/14 04:09:27;;;;;;;5.55;3.00;;;;;;;11.54;55.44;98182.81;5031768;27;101390;-88
2023/03/14 04:12:12;;;;;;;6.13;2.95;;;;;;;11.62;55.12;98185.75;5029491;27;97175;-89
2023/03/14 04:15:07;;;;;;;4.75;2.67;;;;;;;11.64;55.16;98169.88;5027729;27;97178;-88
2023/03/14 04:17:35;;;;;;;6.50;2.67;;;;;;;11.61;55.28;98172.72;5026204;27;101423;-89
2023/03/14 04:20:01;;;;;;;11.82;3.13;;;;;;;11.69;54.71;98155.47;5015478;28;100416;-88
2023/03/14 04:22:34;;;;;;;5.55;2.83;;;;;;;11.63;55.03;98147.16;5013751;28;96781;-89
2023/03/14 04:25:02;;;;;;;7.82;2.60;;;;;;;11.65;55.33;98151.34;5013088;27;97324;-88
2023/03/14 04:27:28;;;;;;;6.30;2.83;;;;;;;11.67;55.14;98138.13;5014760;28;100582;-87
2023/03/14 04:29:55;;;;;;;7.20;2.83;;;;;;;11.72;55.40;98117.56;5014874;28;101989;-88
2023/03/14 04:32:35;;;;;;;7.78;2.75;;;;;;;11.73;55.08;98114.00;4994955;28;97190;-88
2023/03/14 04:35:01;;;;;;;5.18;2.50;;;;;;;11.74;54.46;98105.16;5008251;28;97885;-89
2023/03/14 04:37:26;;;;;;;5.55;2.50;;;;;;;11.73;54.17;98112.22;5031356;27;101395;-88
2023/03/14 04:39:52;;;;;;;5.32;2.35;;;;;;;11.66;54.36;98110.97;4998047;28;100966;-88
2023/03/14 04:42:25;;;;;;;4.75;2.60;;;;;;;11.70;54.61;98120.34;5021077;27;97191;-89
2023/03/14 04:44:51;;;;;;;4.97;2.60;;;;;;;11.77;55.19;98136.47;4998085;28;97254;-89
2023/03/14 04:47:20;;;;;;;6.32;2.60;;;;;;;11.85;55.07;98136.78;5014452;28;101435;-89
2023/03/14 04:49:47;;;;;;;4.25;2.65;;;;;;;11.61;55.09;98110.50;5013048;27;101567;-89
2023/03/14 04:52:14;;;;;;;6.82;2.90;;;;;;;11.80;54.96;98138.88;5015434;27;96834;-89
2023/03/14 04:54:41;;;;;;;4.75;2.90;;;;;;;11.76;54.87;98129.56;5058577;27;97098;-87
2023/03/14 04:57:06;;;;;;;6.18;2.83;;;;;;;11.78;54.61;98132.94;5012419;28;100268;-88
2023/03/14 04:59:34;;;;;;;5.13;3.17;;;;;;;11.75;54.71;98157.63;5003869;28;101301;-89
2023/03/14 05:02:14;;;;;;;5.28;2.70;;;;;;;11.54;54.77;98114.50;5033357;27;96766;-88
2023/03/14 05:04:54;;;;;;;5.63;2.63;;;;;;;11.68;55.09;98116.13;5024678;27;97425;-89
2023/03/14 05:07:38;;;;;;;6.07;3.10;;;;;;;11.69;55.71;98128.31;5054714;27;97083;-90
2023/03/14 05:10:20;;;;;;;5.50;2.95;;;;;;;11.74;56.47;98139.34;5031643;28;100543;-90
2023/03/14 05:13:04;;;;;;;6.57;3.55;;;;;;;11.76;55.93;98126.94;5028926;28;97213;-89
2023/03/14 05:15:55;;;;;;;7.30;3.00;;;;;;;11.69;56.72;98120.44;5014941;28;97158;-89
2023/03/14 05:18:52;;;;;;;5.10;2.75;;;;;;;11.63;57.39;98111.22;4982967;27;97939;-89
2023/03/14 05:21:33;;;;;;;7.78;2.80;;;;;;;11.52;58.04;98090.16;5026899;27;97829;-89
2023/03/14 05:24:13;;;;;;;5.35;3.13;;;;;;;11.45;58.32;98097.63;5013431;28;96828;-89
2023/03/14 05:26:57;;;;;;;6.60;3.13;;;;;;;11.41;57.49;98097.97;5029007;27;97178;-89
2023/03/14 05:29:44;;;;;;;11.02;3.80;;;;;;;11.37;58.55;98093.88;5016080;28;101169;-88
2023/03/14 05:32:32;;;;;;;7.40;3.13;;;;;;;11.30;58.65;98096.13;5010528;28;99495;-88
2023/03/14 05:35:07;;;;;;;8.32;3.67;;;;;;;11.32;58.68;98117.88;5012500;27;97150;-88
2023/03/14 05:37:46;;;;;;;6.07;3.03;;;;;;;11.22;58.76;98103.69;5033063;27;97140;-89
2023/03/14 05:40:27;;;;;;;4.95;2.75;;;;;;;11.11;58.41;98088.72;5029125;27;97010;-87
2023/03/14 05:43:07;;;;;;;5.80;3.42;;;;;;;11.22;58.32;98122.91;5015361;28;102141;-89
2023/03/14 05:45:39;;;;;;;5.88;2.45;;;;;;;11.04;58.46;98103.22;5027030;27;97397;-88
2023/03/14 05:48:23;;;;;;;6.50;3.28;;;;;;;11.25;58.40;98138.47;5027499;28;96765;-88
2023/03/14 05:51:05;;;;;;;8.90;3.88;;;;;;;11.27;58.28;98120.81;5015363;28;102579;-89
2023/03/14 05:53:45;;;;;;;9.47;3.33;;;;;;;11.38;57.89;98132.34;5031987;27;102151;-89
2023/03/14 05:56:29;;;;;;;8.07;3.05;;;;;;;11.40;57.76;98117.28;5026746;28;96871;-89
2023/03/14 05:59:08;;;;;;;7.72;2.88;;;;;;;11.32;57.87;98104.72;5013259;28;97091;-90
2023/03/14 06:01:57;;;;;;;5.60;2.85;;;;;;;11.37;57.74;98109.63;5029139;28;98806;-89
2023/03/14 06:04:26;;;;;;;6.40;2.83;;;;;;;11.35;57.29;98107.13;5030160;28;101070;-87
2023/03/14 06:06:55;;;;;;;7.65;2.67;;;;;;;11.45;56.60;98133.56;5011676;28;98255;-88
2023/03/14 06:09:23;;;;;;;6.97;3.03;;;;;;;11.42;56.59;98137.25;5014188;27;97735;-86
2023/03/14 06:11:49;;;;;;;6.78;2.60;;;;;;;11.46;56.65;98130.84;5048412;27;101556;-85
2023/03/14 06:14:15;;;;;;;5.45;2.72;;;;;;;11.46;56.50;98122.97;5031041;28;100729;-86
2023/03/14 06:16:44;;;;;;;7.38;3.45;;;;;;;11.35;56.50;98101.88;5015646;28;96803;-85
2023/03/14 06:19:11;;;;;;;9.88;2.95;;;;;;;11.54;56.68;98115.34;5049378;27;96982;-86
2023/03/14 06:21:37;;;;;;;5.10;2.75;;;;;;;11.46;56.10;98116.84;5032108;27;100522;-87
2023/03/14 06:24:03;;;;;;;6.85;3.47;;;;;;;11.48;56.82;98138.59;5014518;28;101179;-85
2023/03/14 06:26:32;;;;;;;5.72;2.70;;;;;;;11.57;56.59;98148.44;5021457;28;97211;-86
2023/03/14 06:29:02;;;;;;;4.25;2.88;;;;;;;11.59;56.42;98135.22;4999026;28;97272;-86
2023/03/14 06:31:32;;;;;;;5.30;2.57;;;;;;;11.44;56.19;98147.66;5031456;28;102154;-89
2023/03/14 06:34:02;;;;;;;5.80;3.05;;;;;;;11.60;56.10;98158.72;5014176;28;99664;-91
2023/03/14 06:36:30;;;;;;;3.88;2.80;;;;;;;11.65;56.25;98161.03;5015954;28;97233;-91
2023/03/14 06:38:56;;;;;;;5.65;3.13;;;;;;;11.77;56.46;98174.13;5013766;28;97247;-89
2023/03/14 06:41:25;;;;;;;9.05;3.28;;;;;;;11.74;55.38;98168.25;5016008;28;101373;-89
2023/03/14 06:43:51;;;;;;;5.97;2.92;;;;;;;11.54;55.84;98138.16;5001079;28;101424;-89
2023/03/14 06:46:19;;;;;;;4.90;2.60;;;;;;;11.74;56.22;98168.25;5032489;28;97567;-89
2023/03/14 06:48:45;;;;;;;4.55;2.60;;;;;;;11.61;55.84;98143.84;5039977;27;100511;-91
2023/03/14 06:51:12;;;;;;;4.03;2.90;;;;;;;11.32;56.12;98110.00;4999030;27;101600;-92
2023/03/14 06:53:38;;;;;;;6.00;2.88;;;;;;;11.76;56.06;98177.69;5015903;28;100027;-90
2023/03/14 06:56:04;;;;;;;6.78;3.17;;;;;;;11.67;56.41;98164.41;4999605;28;96857;-88
2023/03/14 06:58:32;;;;;;;6.15;3.25;;;;;;;11.37;56.15;98120.16;5033463;28;96978;-93
2023/03/14 07:00:59;;;;;;;7.85;3.65;;;;;;;11.54;56.55;98157.38;5006255;28;102488;-89
2023/03/14 07:03:30;;;;;;;7.57;3.38;;;;;;;11.69;55.73;98151.97;5037760;27;101349;-90
2023/03/14 07:05:56;;;;;;;8.65;3.28;;;;;;;11.45;56.23;98116.00;5013958;28;96785;-89
2023/03/14 07:08:22;;;;;;;5.28;2.92;;;;;;;11.43;55.89;98106.56;5006445;28;96730;-91
2023/03/14 07:10:48;;;;;;;7.82;3.30;;;;;;;11.79;56.18;98184.53;5016108;27;101519;-94
2023/03/14 07:13:19;;;;;;;6.97;3.47;;;;;;;11.68;56.57;98171.31;5017844;27;101066;-95
2023/03/14 07:15:54;;;;;;;7.97;3.30;;;;;;;11.62;56.33;98156.00;5018514;28;97030;-94
2023/03/14 07:18:20;;;;;;;7.07;4.10;;;;;;;11.47;56.51;98134.31;5031483;27;96989;-94
2023/03/14 07:20:51;;;;;;;9.18;4.05;;;;;;;11.39;56.57;98140.09;5007347;28;100329;-95
2023/03/14 07:23:21;;;;;;;7.20;3.70;;;;;;;11.58;56.91;98186.94;5018651;28;101425;-93
2023/03/14 07:25:50;;;;;;;13.10;4.25;;;;;;;11.72;57.90;98184.16;5032827;27;97136;-91
2023/03/14 07:28:18;;;;;;;8.70;3.88;;;;;;;11.87;57.12;98211.13;5021444;28;96923;-91
2023/03/14 07:30:47;;;;;;;11.85;4.97;;;;;;;11.81;57.20;98201.03;5013120;28;101246;-91
2023/03/14 07:33:17;;;;;;;8.80;4.35;;;;;;;11.46;56.71;98117.72;5005662;28;100451;-91
2023/03/14 07:35:43;;;;;;;9.70;4.28;;;;;;;11.76;56.69;98168.97;5009333;28;96728;-90
2023/03/14 07:38:09;;;;;;;8.45;3.50;;;;;;;11.70;56.36;98165.00;4999342;28;97274;-90
2023/03/14 07:40:40;;;;;;;9.18;4.60;;;;;;;11.52;56.68;98148.78;5015586;28;100720;-93
2023/03/14 07:43:06;;;;;;;7.72;4.10;;;;;;;11.57;57.11;98146.66;5012054;28;97131;-93
2023/03/14 07:45:46;;;;;;;11.60;5.15;;;;;;;11.34;57.16;98110.69;5013648;28;97652;-93
2023/03/14 07:48:11;;;;;;;6.75;3.83;;;;;;;11.56;57.01;98125.75;5033386;27;96927;-95
2023/03/14 07:50:37;;;;;;;11.75;5.43;;;;;;;11.48;56.81;98113.16;5018449;27;101195;-94
2023/03/14 07:53:03;;;;;;;9.68;4.75;;;;;;;11.68;57.16;98159.03;5014344;28;100973;-89
2023/03/14 07:55:28;;;;;;;7.32;3.65;;;;;;;11.47;57.16;98156.16;5014957;28;96812;-87
2023/03/14 07:57:56;;;;;;;7.00;3.65;;;;;;;11.55;57.43;98187.97;5032024;27;96839;-93
2023/03/14 08:00:25;;;;;;;9.75;3.30;;;;;;;11.28;57.68;98138.25;5031800;28;104356;-95
2023/03/14 08:02:50;;;;;;;8.23;3.60;;;;;;;11.18;57.59;98110.97;5034552;27;100074;-84
2023/03/14 08:05:16;;;;;;;5.78;3.30;;;;;;;11.51;57.49;98172.53;5030795;28;97215;-84
2023/03/14 08:07:43;;;;;;;5.40;3.25;;;;;;;11.50;57.57;98170.88;5014646;28;97082;-88
2023/03/14 08:10:09;;;;;;;7.93;4.03;;;;;;;11.48;57.40;98159.63;5035723;27;101879;-84
2023/03/14 08:12:35;;;;;;;7.75;3.60;;;;;;;11.43;57.57;98157.34;5030193;28;101141;-87
2023/03/14 08:15:00;;;;;;;8.70;3.38;;;;;;;11.44;57.80;98172.16;5029076;28;97188;-91
2023/03/14 08:17:26;;;;;;;6.90;3.65;;;;;;;11.45;57.91;98163.31;5025776;27;96912;-92
2023/03/14 08:19:54;;;;;;;8.18;3.88;;;;;;;11.14;57.65;98120.03;4997926;28;99245;-89
2023/03/14 08:22:20;;;;;;;8.05;3.58;;;;;;;11.38;57.27;98163.88;5014326;28;97846;-89
2023/03/14 08:24:46;;;;;;;7.82;4.15;;;;;;;11.31;57.63;98164.31;4998242;28;96849;-87
2023/03/14 08:27:14;;;;;;;6.53;4.15;;;;;;;11.33;57.52;98169.44;5032390;27;97080;-89
2023/03/14 08:29:41;;;;;;;10.20;4.72;;;;;;;11.05;57.94;98134.66;5015383;28;97504;-91
2023/03/14 08:32:07;;;;;;;8.23;4.15;;;;;;;11.47;58.56;98211.34;5017596;28;98197;-89
2023/03/14 08:34:33;;;;;;;9.82;4.40;;;;;;;11.48;58.35;98207.75;5013515;28;97274;-93
2023/03/14 08:36:59;;;;;;;7.93;3.97;;;;;;;11.42;58.71;98197.69;5013942;28;97456;-89
2023/03/14 08:39:24;;;;;;;7.55;3.90;;;;;;;11.37;58.67;98191.06;5041697;27;100059;-89
2023/03/14 08:41:52;;;;;;;8.57;4.28;;;;;;;11.37;59.06;98202.41;5024503;27;101434;-88
2023/03/14 08:44:18;;;;;;;9.95;4.63;;;;;;;11.27;59.42;98194.34;5012749;27;97693;-90
2023/03/14 08:46:43;;;;;;;9.80;4.40;;;;;;;11.17;59.65;98177.56;5033404;28;96954;-93
2023/03/14 08:49:09;;;;;;;7.57;3.47;;;;;;;11.56;59.21;98228.22;5030941;27;100350;-92
2023/03/14 08:51:35;;;;;;;8.27;3.70;;;;;;;11.55;59.53;98234.44;5058043;27;100486;-91
2023/03/14 08:54:00;;;;;;;10.38;3.65;;;;;;;11.36;59.51;98187.59;4998026;28;97194;-91
2023/03/14 08:56:26;;;;;;;9.52;4.50;;;;;;;11.44;59.43;98198.41;5015320;28;96836;-91
2023/03/14 08:58:51;;;;;;;8.98;3.90;;;;;;;11.28;59.13;98180.25;5021566;28;100360;-89
2023/03/14 09:01:18;;;;;;;8.23;4.70;;;;;;;11.64;58.99;98212.75;5014743;28;100657;-90
2023/03/14 09:03:45;;;;;;;7.32;3.72;;;;;;;11.72;58.73;98227.97;5022054;27;96764;-93
2023/03/14 09:06:11;;;;;;;5.78;3.35;;;;;;;11.49;58.63;98183.16;5031763;27;97083;-90
2023/03/14 09:08:37;;;;;;;5.97;3.42;;;;;;;11.55;58.80;98209.00;5009260;28;101848;-88
2023/03/14 09:11:02;;;;;;;7.75;3.63;;;;;;;11.50;58.39;98187.47;5020021;28;98323;-90
2023/03/14 09:13:28;;;;;;;5.38;3.53;;;;;;;11.61;58.25;98202.47;5029613;27;96783;-88
2023/03/14 09:15:55;;;;;;;9.38;4.25;;;;;;;11.47;57.80;98185.06;5010754;28;96859;-86
2023/03/14 09:18:21;;;;;;;5.22;3.00;;;;;;;11.50;58.22;98190.09;4996524;28;100736;-87
2023/03/14 09:20:46;;;;;;;7.93;3.40;;;;;;;11.57;57.96;98211.50;5012708;28;101160;-89
2023/03/14 09:23:12;;;;;;;7.05;4.00;;;;;;;11.65;58.56;98219.69;5030417;28;97395;-91
2023/03/14 09:25:37;;;;;;;8.82;3.78;;;;;;;11.52;58.22;98205.75;5013134;28;97469;-88
2023/03/14 09:28:04;;;;;;;6.45;3.97;;;;;;;11.35;58.13;98180.69;5027966;27;99725;-89
2023/03/14 09:30:30;;;;;;;7.38;3.65;;;;;;;11.26;58.44;98169.03;5009709;28;99829;-89
2023/03/14 09:32:56;;;;;;;9.80;3.83;;;;;;;11.27;58.48;98191.72;5010366;28;97154;-89
2023/03/14 09:35:22;;;;;;;8.13;3.22;;;;;;;11.48;58.40;98225.31;5001078;28;97523;-89
2023/03/14 09:37:48;;;;;;;8.65;4.07;;;;;;;11.62;58.28;98258.50;5028756;27;101476;-90
2023/03/14 09:40:18;;;;;;;11.50;3.40;;;;;;;11.46;58.60;98251.69;5029048;27;100258;-89
2023/03/14 09:42:43;;;;;;;7.00;4.00;;;;;;;11.52;59.04;98259.16;5028040;27;97256;-90
2023/03/14 09:45:17;;;;;;;6.53;3.75;;;;;;;11.48;58.45;98249.78;5041067;27;97479;-89
2023/03/14 09:47:43;;;;;;;7.60;3.80;;;;;;;11.66;58.43;98284.44;5027973;27;101416;-91
2023/03/14 09:50:14;;;;;;;9.45;4.70;;;;;;;11.70;58.51;98279.81;5012961;28;101055;-90
2023/03/14 09:52:46;;;;;;;7.28;3.13;;;;;;;11.63;59.04;98282.03;5031135;27;97242;-89
2023/03/14 09:55:15;;;;;;;6.88;4.22;;;;;;;11.64;58.71;98277.63;5048487;27;97053;-90
2023/03/14 09:57:41;;;;;;;7.43;4.35;;;;;;;11.68;58.87;98281.69;5037695;27;101508;-90
2023/03/14 10:00:15;;;;;;;10.75;4.32;;;;;;;11.71;58.96;98278.84;5015813;28;101535;-90
2023/03/14 10:02:56;;;;;;;7.75;3.72;;;;;;;11.67;59.11;98270.34;4999569;28;96819;-85
2023/03/14 10:05:24;;;;;;;10.20;3.70;;;;;;;11.75;59.23;98272.41;5015767;28;97475;-92
2023/03/14 10:07:50;;;;;;;7.57;4.07;;;;;;;11.70;59.83;98269.31;5015833;28;101767;-92
2023/03/14 10:10:20;;;;;;;7.43;3.88;;;;;;;11.67;59.72;98254.59;5013626;28;100609;-86
2023/03/14 10:13:05;;;;;;;10.98;4.28;;;;;;;11.77;60.21;98276.63;5005974;28;97225;-87
2023/03/14 10:15:32;;;;;;;7.93;3.88;;;;;;;11.84;59.85;98274.41;5040267;27;98364;-88
2023/03/14 10:18:00;;;;;;;8.05;3.83;;;;;;;11.79;60.33;98258.97;5048027;27;97164;-87
2023/03/14 10:20:32;;;;;;;6.47;3.42;;;;;;;11.88;59.98;98275.91;4995548;28;101183;-87
2023/03/14 10:23:03;;;;;;;6.43;3.70;;;;;;;11.86;60.46;98264.66;5048920;27;97299;-87
2023/03/14 10:25:36;;;;;;;6.32;4.05;;;;;;;11.94;60.49;98262.31;5015653;28;96843;-87
2023/03/14 10:28:03;;;;;;;7.03;3.78;;;;;;;12.03;60.14;98267.84;5010622;28;100641;-86
2023/03/14 10:30:43;;;;;;;7.47;3.95;;;;;;;12.09;60.48;98268.25;5013564;28;101071;-87
2023/03/14 10:33:31;;;;;;;8.07;4.22;;;;;;;12.05;59.86;98250.19;5016288;28;96812;-86
2023/03/14 10:36:03;;;;;;;8.75;4.00;;;;;;;12.07;60.05;98248.25;5029863;28;97398;-87
2023/03/14 10:38:33;;;;;;;7.53;4.07;;;;;;;12.14;60.22;98241.63;5016617;27;99794;-86
2023/03/14 10:41:00;;;;;;;6.87;3.80;;;;;;;12.12;60.42;98244.34;5029060;27;97955;-87
2023/03/14 10:43:30;;;;;;;8.95;4.45;;;;;;;12.16;60.55;98260.78;5010418;27;97238;-88
2023/03/14 10:46:06;;;;;;;7.45;4.57;;;;;;;12.14;59.77;98245.09;5030691;27;96932;-86
2023/03/14 10:48:37;;;;;;;9.63;5.18;;;;;;;12.13;60.17;98232.91;5013777;28;101796;-86
2023/03/14 10:51:06;;;;;;;11.88;4.75;;;;;;;12.24;60.21;98255.75;5031820;27;97945;-87
2023/03/14 10:53:43;;;;;;;12.80;4.25;;;;;;;12.27;60.17;98237.13;5023056;27;97240;-88
2023/03/14 10:56:20;;;;;;;16.38;4.57;;;;;;;12.36;61.12;98243.50;5015978;27;97553;-86
2023/03/14 10:58:48;;;;;;;9.85;4.40;;;;;;;12.24;60.73;98224.19;5018873;28;101123;-87
2023/03/14 11:01:39;;;;;;;10.40;4.47;;;;;;;12.46;61.11;98241.88;5032455;27;98350;-88
2023/03/14 11:04:42;;;;;;;10.07;4.37;;;;;;;12.55;61.47;98241.19;5021345;28;96792;-85
2023/03/14 11:07:21;;;;;;;9.02;3.95;;;;;;;12.58;60.80;98235.69;5030518;28;97327;-92
2023/03/14 11:10:01;;;;;;;9.45;3.88;;;;;;;12.67;60.74;98231.53;5041658;27;97090;-91
2023/03/14 11:13:01;;;;;;;6.30;3.40;;;;;;;12.72;60.44;98224.13;5035516;27;100420;-90
2023/03/14 11:15:38;;;;;;;10.23;3.80;;;;;;;12.82;60.33;98234.78;5022969;28;97247;-88
2023/03/14 11:18:52;;;;;;;8.88;3.28;;;;;;;12.91;59.22;98218.28;5011407;28;97420;-85
2023/03/14 11:22:05;;;;;;;13.10;3.30;;;;;;;13.01;59.36;98211.34;5018124;28;97444;-85
2023/03/14 11:29:00;;;;;;;;;;;;;;;;;;;;;
2023/03/14 11:31:29;;;;;;;;;;;;;;;13.26;58.08;98199.75;5029006;27;97344;-90
2023/03/14 11:34:06;;;;;;;7.97;3.22;;;;;;;13.39;57.60;98191.75;5014339;28;101624;-92
2023/03/14 11:36:41;;;;;;;10.00;3.58;;;;;;;13.37;57.71;98191.00;5032294;27;101096;-91
2023/03/14 11:39:12;;;;;;;8.95;2.83;;;;;;;13.26;57.92;98160.22;5009504;28;96736;-91
2023/03/14 11:41:41;;;;;;;8.97;3.23;;;;;;;13.33;57.68;98185.16;5033198;28;96785;-92
2023/03/14 11:44:22;;;;;;;8.45;2.92;;;;;;;13.49;57.68;98205.00;5046845;28;101238;-91
2023/03/14 11:47:06;;;;;;;9.65;2.53;;;;;;;13.52;57.16;98184.53;5033820;28;97263;-91
2023/03/14 11:49:50;;;;;;;7.80;2.75;;;;;;;13.49;56.23;98176.03;5032553;28;97420;-90
2023/03/14 11:52:38;;;;;;;4.35;2.78;;;;;;;13.62;56.14;98199.63;4997715;28;97202;-92